Time;durP1;ratioP1;P1;durP2;ratioP2;P2;SDS_P1;SDS_P2;PMS_P1;PMS_P2;Temp;Humidity;BMP_temperature;BMP_pressure;BME280_temperature;BME280_humidity;BME280_pressure;Samples;Min_cycle;Max_cycle;Signal;HPM_P1;HPM_P2
2022/11/05 00:10:06;;;;;;;;;;;18.70;73.50;;;;;;4493126;31;19969;-70
2022/11/05 00:18:00;;;;;;;;;;;18.60;73.50;;;;;;4481082;31;20013;-70
2022/11/05 00:20:26;;;;;;;;;;;18.70;73.60;;;;;;4493177;31;20418;-70
2022/11/05 00:25:59;;;;;;;;;;;18.60;73.50;;;;;;4492886;31;19977;-70
2022/11/05 00:28:26;;;;;;;;;;;18.60;73.50;;;;;;4493075;31;19969;-70
2022/11/05 00:30:52;;;;;;;;;;;18.60;73.50;;;;;;4493101;31;19977;-70
2022/11/05 00:33:18;;;;;;;;;;;18.60;73.50;;;;;;4492605;31;20306;-70
2022/11/05 00:35:43;;;;;;;;;;;18.60;73.50;;;;;;4492786;31;20292;-70
2022/11/05 00:38:09;;;;;;;;;;;18.50;73.50;;;;;;4492454;31;19962;-70
2022/11/05 00:40:35;;;;;;;;;;;18.60;73.50;;;;;;4492663;31;20379;-70
2022/11/05 00:45:45;;;;;;;;;;;18.50;73.50;;;;;;4493109;31;19969;-70
2022/11/05 00:50:55;;;;;;;;;;;18.50;73.60;;;;;;4492763;31;19996;-70
2022/11/05 00:53:21;;;;;;;;;;;18.40;73.60;;;;;;4492511;31;20024;-70
2022/11/05 00:55:46;;;;;;;;;;;18.40;73.60;;;;;;4492712;31;20047;-70
2022/11/05 00:58:13;;;;;;;;;;;18.50;73.60;;;;;;4492177;31;20079;-71
2022/11/05 01:00:40;;;;;;;;;;;18.40;73.60;;;;;;4492212;31;19969;-71
2022/11/05 01:03:07;;;;;;;;;;;18.40;73.60;;;;;;4492630;31;20019;-70
2022/11/05 01:05:36;;;;;;;;;;;18.40;73.60;;;;;;4492402;31;20015;-70
2022/11/05 01:08:02;;;;;;;;;;;18.40;73.70;;;;;;4492714;32;19984;-70
2022/11/05 01:10:28;;;;;;;;;;;18.40;73.60;;;;;;4492560;32;20418;-70
2022/11/05 01:12:54;;;;;;;;;;;18.40;73.60;;;;;;4492324;32;19984;-70
2022/11/05 01:15:20;;;;;;;;;;;18.40;74.40;;;;;;4492319;32;19973;-70
2022/11/05 01:17:45;;;;;;;;;;;18.30;73.60;;;;;;4478369;32;20586;-70
2022/11/05 01:20:11;;;;;;;;;;;18.30;73.60;;;;;;4492165;32;20013;-69
2022/11/05 01:22:37;;;;;;;;;;;18.30;73.60;;;;;;4492666;32;19961;-70
2022/11/05 01:25:03;;;;;;;;;;;18.40;73.60;;;;;;4492740;32;20059;-69
2022/11/05 01:27:29;;;;;;;;;;;18.30;73.60;;;;;;4492916;32;19988;-69
2022/11/05 01:29:56;;;;;;;;;;;18.30;73.50;;;;;;4492999;32;19985;-70
2022/11/05 01:32:21;;;;;;;;;;;18.30;73.60;;;;;;4492706;32;20410;-70
2022/11/05 01:34:47;;;;;;;;;;;18.30;73.50;;;;;;4492438;32;19973;-70
2022/11/05 01:37:13;;;;;;;;;;;18.30;73.50;;;;;;4492540;32;20010;-70
2022/11/05 01:39:38;;;;;;;;;;;18.30;73.60;;;;;;4492311;32;19962;-70
2022/11/05 01:42:11;;;;;;;;;;;18.20;73.50;;;;;;4492666;32;19980;-70
2022/11/05 01:44:52;;;;;;;;;;;18.20;73.50;;;;;;4492178;32;20429;-70
2022/11/05 01:47:30;;;;;;;;;;;18.20;73.50;;;;;;4492314;32;19969;-70
2022/11/05 01:49:58;;;;;;;;;;;18.30;73.60;;;;;;4492670;32;19985;-70
2022/11/05 01:52:24;;;;;;;;;;;18.30;73.60;;;;;;4493508;31;20066;-70
2022/11/05 01:54:50;;;;;;;;;;;18.20;73.50;;;;;;4495348;31;19973;-70
2022/11/05 01:57:16;;;;;;;;;;;18.20;73.50;;;;;;4494935;31;20046;-69
2022/11/05 01:59:44;;;;;;;;;;;18.20;73.50;;;;;;4494785;31;20316;-70
2022/11/05 02:02:10;;;;;;;;;;;18.20;73.60;;;;;;4495279;31;20315;-70
2022/11/05 02:04:41;;;;;;;;;;;18.20;73.60;;;;;;4495049;31;20375;-69
2022/11/05 02:07:08;;;;;;;;;;;18.20;73.60;;;;;;4480723;31;19996;-70
2022/11/05 02:09:38;;;;;;;;;;;18.20;73.60;;;;;;4494975;31;20395;-70
2022/11/05 02:12:04;;;;;;;;;;;18.10;73.50;;;;;;4495260;31;20405;-69
2022/11/05 02:14:30;;;;;;;;;;;18.20;73.60;;;;;;4480547;31;19984;-70
2022/11/05 02:16:59;;;;;;;;;;;18.20;73.60;;;;;;4494952;31;20295;-70
2022/11/05 02:19:34;;;;;;;;;;;18.10;73.50;;;;;;4494554;31;20043;-70
2022/11/05 02:22:12;;;;;;;;;;;18.10;73.60;;;;;;4494949;31;19974;-70
2022/11/05 02:24:56;;;;;;;;;;;18.10;73.60;;;;;;4494776;31;19966;-70
2022/11/05 02:27:28;;;;;;;;;;;18.10;73.60;;;;;;4495068;31;20495;-70
2022/11/05 02:30:08;;;;;;;;;;;18.10;73.60;;;;;;4494446;31;19982;-70
2022/11/05 02:32:44;;;;;;;;;;;18.10;73.60;;;;;;4494926;31;19985;-70
2022/11/05 02:35:09;;;;;;;;;;;18.00;73.60;;;;;;4494367;31;20020;-70
2022/11/05 02:37:39;;;;;;;;;;;18.10;73.60;;;;;;4494237;31;20111;-70
2022/11/05 02:40:05;;;;;;;;;;;18.10;73.60;;;;;;4494564;31;19993;-70
2022/11/05 02:42:31;;;;;;;;;;;18.00;73.60;;;;;;4494621;31;20392;-70
2022/11/05 02:45:02;;;;;;;;;;;18.10;73.60;;;;;;4494367;31;19981;-70
2022/11/05 02:47:34;;;;;;;;;;;18.10;73.60;;;;;;4494498;31;19981;-70
2022/11/05 02:49:59;;;;;;;;;;;18.00;73.60;;;;;;4494860;31;19973;-70
2022/11/05 02:52:44;;;;;;;;;;;18.10;73.70;;;;;;4494133;31;19976;-69
2022/11/05 02:55:17;;;;;;;;;;;18.00;73.60;;;;;;4494412;31;20449;-70
2022/11/05 02:57:44;;;;;;;;;;;18.00;73.60;;;;;;4494461;31;20143;-70
2022/11/05 03:00:28;;;;;;;;;;;18.00;73.60;;;;;;4480038;31;19983;-70
2022/11/05 03:02:54;;;;;;;;;;;18.00;73.60;;;;;;4494293;31;19974;-70
2022/11/05 03:05:22;;;;;;;;;;;18.00;73.60;;;;;;4493793;31;19962;-70
2022/11/05 03:07:53;;;;;;;;;;;18.00;73.60;;;;;;4494136;31;20495;-70
2022/11/05 03:10:26;;;;;;;;;;;18.00;73.60;;;;;;4494483;31;20375;-70
2022/11/05 03:13:06;;;;;;;;;;;18.00;73.60;;;;;;4493972;31;19973;-70
2022/11/05 03:15:43;;;;;;;;;;;18.00;73.60;;;;;;4494436;31;20100;-70
2022/11/05 03:18:09;;;;;;;;;;;18.00;73.60;;;;;;4494062;31;20111;-70
2022/11/05 03:20:44;;;;;;;;;;;18.00;73.60;;;;;;4493626;31;19974;-70
2022/11/05 03:23:09;;;;;;;;;;;17.90;73.60;;;;;;4479761;31;20119;-70
2022/11/05 03:25:41;;;;;;;;;;;18.00;73.60;;;;;;4493745;31;19970;-70
2022/11/05 03:28:09;;;;;;;;;;;17.90;73.60;;;;;;4494116;31;20004;-69
2022/11/05 03:30:35;;;;;;;;;;;17.90;73.60;;;;;;4493638;31;19985;-70
2022/11/05 03:33:07;;;;;;;;;;;17.90;73.70;;;;;;4493776;31;19996;-70
2022/11/05 03:35:35;;;;;;;;;;;17.90;73.60;;;;;;4493760;31;20012;-70
2022/11/05 03:38:02;;;;;;;;;;;17.90;73.70;;;;;;4493663;31;20318;-70
2022/11/05 03:40:32;;;;;;;;;;;17.90;73.70;;;;;;4493708;31;19985;-70
2022/11/05 03:42:59;;;;;;;;;;;17.90;73.70;;;;;;4493542;31;20051;-71
2022/11/05 03:45:31;;;;;;;;;;;17.90;73.70;;;;;;4493406;31;19973;-70
2022/11/05 03:47:58;;;;;;;;;;;17.90;73.70;;;;;;4493597;31;20095;-70
2022/11/05 03:50:38;;;;;;;;;;;17.90;73.70;;;;;;4493664;31;20115;-70
2022/11/05 03:53:08;;;;;;;;;;;17.80;73.60;;;;;;4493720;31;20018;-70
2022/11/05 03:55:37;;;;;;;;;;;17.90;73.70;;;;;;4493319;31;19985;-70
2022/11/05 03:58:03;;;;;;;;;;;17.80;73.70;;;;;;4493336;31;20017;-70
2022/11/05 04:00:29;;;;;;;;;;;17.80;73.70;;;;;;4492855;31;19965;-70
2022/11/05 04:02:55;;;;;;;;;;;17.80;73.60;;;;;;4492998;31;20009;-70
2022/11/05 04:05:21;;;;;;;;;;;17.80;74.50;;;;;;4493093;31;20295;-70
2022/11/05 04:13:23;;;;;;;;;;;17.80;73.70;;;;;;4493640;31;20059;-70
2022/11/05 04:18:35;;;;;;;;;;;17.80;73.60;;;;;;4493432;31;20484;-70
2022/11/05 04:26:29;;;;;;;;;;;17.70;73.60;;;;;;4481152;31;19978;-70
2022/11/05 04:31:39;;;;;;;;;;;17.80;73.70;;;;;;4493359;31;20324;-70
2022/11/05 04:34:06;;;;;;;;;;;17.70;73.50;;;;;;4493158;31;19974;-70
2022/11/05 04:36:31;;;;;;;;;;;17.70;73.60;;;;;;4492846;31;19981;-70
2022/11/05 04:38:57;;;;;;;;;;;17.70;73.60;;;;;;4492738;31;19980;-70
2022/11/05 04:41:23;;;;;;;;;;;17.70;73.50;;;;;;4492873;31;20008;-70
2022/11/05 04:43:48;;;;;;;;;;;17.70;73.60;;;;;;4492878;31;20127;-70
2022/11/05 04:46:14;;;;;;;;;;;17.70;73.60;;;;;;4492778;31;20107;-70
2022/11/05 04:48:40;;;;;;;;;;;17.70;73.60;;;;;;4492775;31;19978;-70
2022/11/05 04:51:05;;;;;;;;;;;17.70;73.60;;;;;;4492670;31;20389;-70
2022/11/05 04:53:31;;;;;;;;;;;17.70;73.60;;;;;;4492638;31;20020;-70
2022/11/05 04:56:18;;;;;;;;;;;17.70;73.60;;;;;;4492595;31;19958;-70
2022/11/05 04:58:43;;;;;;;;;;;17.70;73.60;;;;;;4492645;31;20072;-69
2022/11/05 05:01:19;;;;;;;;;;;17.70;73.60;;;;;;4492311;31;20091;-70
2022/11/05 05:03:45;;;;;;;;;;;17.70;73.60;;;;;;4492956;31;19982;-70
2022/11/05 05:06:11;;;;;;;;;;;17.70;73.70;;;;;;4492528;31;19993;-70
2022/11/05 05:08:37;;;;;;;;;;;17.70;73.60;;;;;;4492152;32;19966;-70
2022/11/05 05:11:07;;;;;;;;;;;17.60;73.70;;;;;;4492706;32;19962;-70
2022/11/05 05:13:33;;;;;;;;;;;17.60;73.60;;;;;;4492509;32;19977;-70
2022/11/05 05:15:59;;;;;;;;;;;17.60;73.60;;;;;;4478334;32;19989;-70
2022/11/05 05:18:25;;;;;;;;;;;17.60;73.60;;;;;;4492414;32;19962;-70
2022/11/05 05:23:39;;;;;;;;;;;17.60;73.70;;;;;;4492812;32;19981;-70
2022/11/05 05:26:05;;;;;;;;;;;17.60;73.70;;;;;;4492690;31;20438;-70
2022/11/05 05:28:31;;;;;;;;;;;17.60;73.70;;;;;;4495362;31;19973;-70
2022/11/05 05:30:59;;;;;;;;;;;17.60;73.70;;;;;;4495611;31;19973;-70
2022/11/05 05:33:26;;;;;;;;;;;17.60;73.70;;;;;;4495796;31;20128;-70
2022/11/05 05:35:53;;;;;;;;;;;17.60;73.70;;;;;;4495482;31;20417;-70
2022/11/05 05:38:18;;;;;;;;;;;17.60;73.70;;;;;;4481293;31;20384;-70
2022/11/05 05:40:44;;;;;;;;;;;17.50;73.60;;;;;;4495385;31;20014;-69
2022/11/05 05:43:10;;;;;;;;;;;17.50;73.60;;;;;;4495369;31;20008;-70
2022/11/05 05:45:35;;;;;;;;;;;17.50;73.60;;;;;;4478266;32;19981;-70
2022/11/05 05:48:02;;;;;;;;;;;17.50;73.60;;;;;;4465404;32;20051;-70
2022/11/05 05:50:28;;;;;;;;;;;17.50;74.50;;;;;;4479201;32;19988;-70
2022/11/05 05:52:53;;;;;;;;;;;17.50;73.70;;;;;;4479519;32;20010;-70
2022/11/05 05:55:19;;;;;;;;;;;17.50;73.60;;;;;;4479243;32;20498;-70
2022/11/05 05:57:45;;;;;;;;;;;17.50;73.60;;;;;;4479038;32;19966;-70
2022/11/05 06:00:11;;;;;;;;;;;17.50;73.60;;;;;;4479268;32;19974;-70
2022/11/05 06:02:37;;;;;;;;;;;17.50;73.70;;;;;;4478080;32;19993;-70
2022/11/05 06:05:02;;;;;;;;;;;17.50;73.60;;;;;;4479090;32;20043;-70
2022/11/05 06:07:28;;;;;;;;;;;17.50;73.60;;;;;;4478955;32;20024;-70
2022/11/05 06:09:54;;;;;;;;;;;17.50;73.60;;;;;;4479215;32;19970;-70
2022/11/05 06:12:19;;;;;;;;;;;17.50;73.60;;;;;;4479174;32;20360;-70
2022/11/05 06:14:45;;;;;;;;;;;17.50;73.60;;;;;;4479201;32;20520;-70
2022/11/05 06:17:10;;;;;;;;;;;17.50;73.60;;;;;;4479146;32;19977;-70
2022/11/05 06:19:36;;;;;;;;;;;17.40;73.60;;;;;;4479005;32;19970;-70
2022/11/05 06:22:02;;;;;;;;;;;17.50;73.60;;;;;;4479020;32;20415;-70
2022/11/05 06:24:28;;;;;;;;;;;17.50;73.60;;;;;;4478755;32;19970;-70
2022/11/05 06:26:53;;;;;;;;;;;17.50;73.60;;;;;;4478971;32;20006;-70
2022/11/05 06:29:19;;;;;;;;;;;17.40;73.60;;;;;;4479039;32;19974;-70
2022/11/05 06:31:45;;;;;;;;;;;17.40;73.60;;;;;;4478985;32;20406;-70
2022/11/05 06:34:10;;;;;;;;;;;17.40;73.60;;;;;;4478940;32;20382;-70
2022/11/05 06:36:37;;;;;;;;;;;17.40;73.60;;;;;;4478643;32;19977;-70
2022/11/05 06:39:03;;;;;;;;;;;17.40;73.50;;;;;;4451209;32;19993;-70
2022/11/05 06:41:28;;;;;;;;;;;17.40;73.50;;;;;;4478843;32;19970;-70
2022/11/05 06:43:54;;;;;;;;;;;17.40;73.50;;;;;;4481987;31;20047;-70
2022/11/05 06:46:20;;;;;;;;;;;17.40;73.50;;;;;;4494600;31;19966;-70
2022/11/05 06:48:46;;;;;;;;;;;17.40;73.50;;;;;;4494803;31;19984;-70
2022/11/05 06:51:11;;;;;;;;;;;17.40;73.50;;;;;;4494699;31;20363;-70
2022/11/05 06:53:37;;;;;;;;;;;17.40;73.50;;;;;;4495173;31;20011;-69
2022/11/05 06:56:04;;;;;;;;;;;17.40;73.50;;;;;;4495179;31;19980;-70
2022/11/05 06:58:30;;;;;;;;;;;17.40;73.50;;;;;;4494351;31;19977;-70
2022/11/05 07:01:09;;;;;;;;;;;17.40;73.50;;;;;;4494622;31;19961;-70
2022/11/05 07:03:36;;;;;;;;;;;17.40;73.50;;;;;;4494052;31;19977;-70
2022/11/05 07:06:02;;;;;;;;;;;17.40;73.50;;;;;;4494186;31;20167;-70
2022/11/05 07:08:31;;;;;;;;;;;17.40;73.50;;;;;;4493952;31;20060;-70
2022/11/05 07:10:57;;;;;;;;;;;17.40;73.50;;;;;;4494205;31;20066;-69
2022/11/05 07:13:23;;;;;;;;;;;17.40;73.50;;;;;;4493927;31;19978;-70
2022/11/05 07:15:48;;;;;;;;;;;17.40;73.50;;;;;;4494348;31;20055;-70
2022/11/05 07:18:14;;;;;;;;;;;17.40;73.40;;;;;;4494047;31;20036;-70
2022/11/05 07:20:40;;;;;;;;;;;17.40;73.40;;;;;;4494116;31;20092;-70
2022/11/05 07:23:07;;;;;;;;;;;17.30;73.40;;;;;;4493953;31;20367;-70
2022/11/05 07:25:33;;;;;;;;;;;17.30;73.50;;;;;;4494100;31;19988;-70
2022/11/05 07:27:59;;;;;;;;;;;17.30;72.90;;;;;;4493674;31;19974;-70
2022/11/05 07:30:25;;;;;;;;;;;17.30;72.60;;;;;;4493846;31;20108;-69
2022/11/05 07:32:50;;;;;;;;;;;17.30;72.60;;;;;;4493839;31;20399;-70
2022/11/05 07:35:16;;;;;;;;;;;17.30;72.90;;;;;;4493986;31;20107;-70
2022/11/05 07:37:43;;;;;;;;;;;17.30;72.90;;;;;;4493622;31;19981;-70
2022/11/05 07:40:10;;;;;;;;;;;17.30;73.00;;;;;;4492569;31;19981;-70
2022/11/05 07:42:36;;;;;;;;;;;17.30;73.10;;;;;;4493736;31;19981;-70
2022/11/05 07:45:02;;;;;;;;;;;17.30;73.20;;;;;;4493142;31;20047;-70
2022/11/05 07:47:27;;;;;;;;;;;17.30;73.30;;;;;;4493312;31;20087;-70
2022/11/05 07:49:53;;;;;;;;;;;17.30;73.50;;;;;;4493466;31;20530;-71
2022/11/05 07:52:18;;;;;;;;;;;17.40;73.50;;;;;;4479319;31;20087;-70
2022/11/05 07:54:44;;;;;;;;;;;17.40;73.50;;;;;;4493449;31;20409;-70
2022/11/05 07:57:10;;;;;;;;;;;17.50;73.30;;;;;;4493147;31;20040;-70
2022/11/05 07:59:35;;;;;;;;;;;17.60;73.00;;;;;;4493281;31;19969;-70
2022/11/05 08:02:01;;;;;;;;;;;17.70;72.70;;;;;;4493137;31;19970;-71
2022/11/05 08:04:27;;;;;;;;;;;17.80;72.40;;;;;;4493065;31;20027;-70
2022/11/05 08:06:52;;;;;;;;;;;17.90;72.20;;;;;;4478852;31;20084;-70
2022/11/05 08:09:18;;;;;;;;;;;18.00;71.90;;;;;;4478983;31;20095;-70
2022/11/05 08:11:43;;;;;;;;;;;18.20;71.60;;;;;;4493158;31;20056;-70
2022/11/05 08:14:09;;;;;;;;;;;18.30;71.30;;;;;;4493371;31;20126;-69
2022/11/05 08:16:35;;;;;;;;;;;18.40;71.00;;;;;;4493154;31;20009;-70
2022/11/05 08:19:00;;;;;;;;;;;18.60;70.70;;;;;;4492826;31;19965;-70
2022/11/05 08:21:26;;;;;;;;;;;18.70;70.40;;;;;;4492952;31;20163;-69
2022/11/05 08:23:52;;;;;;;;;;;18.80;70.10;;;;;;4493035;31;20108;-71
2022/11/05 08:26:18;;;;;;;;;;;18.90;69.90;;;;;;4493032;31;20096;-71
2022/11/05 08:28:44;;;;;;;;;;;18.90;69.70;;;;;;4492963;31;20155;-71
2022/11/05 08:31:09;;;;;;;;;;;19.00;69.60;;;;;;4492937;31;19969;-71
2022/11/05 08:33:35;;;;;;;;;;;19.00;69.50;;;;;;4492723;31;20043;-72
2022/11/05 08:36:01;;;;;;;;;;;19.10;69.50;;;;;;4492795;31;20015;-72
2022/11/05 08:38:28;;;;;;;;;;;19.10;69.40;;;;;;4492480;31;19989;-72
2022/11/05 08:40:55;;;;;;;;;;;19.20;69.20;;;;;;4492837;31;20454;-73
2022/11/05 08:43:21;;;;;;;;;;;19.20;69.00;;;;;;4492687;31;19984;-72
2022/11/05 08:45:46;;;;;;;;;;;19.30;69.00;;;;;;4492936;31;19970;-72
2022/11/05 08:48:14;;;;;;;;;;;19.30;68.80;;;;;;4492758;31;19961;-72
2022/11/05 08:50:40;;;;;;;;;;;19.40;68.80;;;;;;4493020;31;19973;-72
2022/11/05 08:53:06;;;;;;;;;;;19.40;68.70;;;;;;4493012;31;20327;-72
2022/11/05 08:55:32;;;;;;;;;;;19.40;68.70;;;;;;4492741;31;20063;-71
2022/11/05 08:57:59;;;;;;;;;;;19.50;68.60;;;;;;4492768;31;20377;-72
2022/11/05 09:00:25;;;;;;;;;;;19.50;68.60;;;;;;4492347;31;20007;-71
2022/11/05 09:02:51;;;;;;;;;;;19.50;68.60;;;;;;4491963;31;20017;-70
2022/11/05 09:05:17;;;;;;;;;;;19.50;68.50;;;;;;4492412;31;20123;-71
2022/11/05 09:07:43;;;;;;;;;;;19.60;68.50;;;;;;4478098;32;19965;-71
2022/11/05 09:10:09;;;;;;;;;;;19.60;68.40;;;;;;4492802;32;19961;-70
2022/11/05 09:12:34;;;;;;;;;;;19.60;68.40;;;;;;4492554;32;20453;-70
2022/11/05 09:15:00;;;;;;;;;;;19.60;68.40;;;;;;4478256;32;19984;-70
2022/11/05 09:17:26;;;;;;;;;;;19.60;68.40;;;;;;4492715;32;20057;-70
2022/11/05 09:19:51;;;;;;;;;;;19.60;68.30;;;;;;4492188;32;19977;-70
2022/11/05 09:22:17;;;;;;;;;;;19.70;68.30;;;;;;4492503;32;20280;-71
2022/11/05 09:24:42;;;;;;;;;;;19.70;68.30;;;;;;4492467;32;20119;-70
2022/11/05 09:27:09;;;;;;;;;;;19.70;68.20;;;;;;4492477;32;19970;-70
2022/11/05 09:29:38;;;;;;;;;;;19.80;68.20;;;;;;4478285;32;20076;-70
2022/11/05 09:32:04;;;;;;;;;;;19.80;68.20;;;;;;4492468;32;20034;-70
2022/11/05 09:34:29;;;;;;;;;;;19.80;68.10;;;;;;4492658;32;19999;-71
2022/11/05 09:36:55;;;;;;;;;;;19.80;68.00;;;;;;4492628;32;20004;-71
2022/11/05 09:39:22;;;;;;;;;;;19.80;68.10;;;;;;4492517;32;19981;-71
2022/11/05 09:41:48;;;;;;;;;;;19.90;68.00;;;;;;4492044;32;19981;-70
2022/11/05 09:44:19;;;;;;;;;;;19.90;68.00;;;;;;4492154;32;20012;-70
2022/11/05 09:46:47;;;;;;;;;;;20.00;68.20;;;;;;4492587;32;20028;-71
2022/11/05 09:49:23;;;;;;;;;;;20.00;68.20;;;;;;4492295;32;19989;-70
2022/11/05 09:51:50;;;;;;;;;;;20.00;68.10;;;;;;4492334;32;20108;-70
2022/11/05 09:54:16;;;;;;;;;;;20.00;68.00;;;;;;4492049;32;19988;-71
2022/11/05 09:56:42;;;;;;;;;;;20.10;68.20;;;;;;4492337;32;19969;-71
2022/11/05 09:59:17;;;;;;;;;;;20.10;68.20;;;;;;4492308;32;20004;-73
2022/11/05 10:01:44;;;;;;;;;;;20.20;68.20;;;;;;4492234;32;19989;-70
2022/11/05 10:04:18;;;;;;;;;;;20.20;68.10;;;;;;4492326;32;19966;-71
2022/11/05 10:06:46;;;;;;;;;;;20.20;68.00;;;;;;4492290;32;20021;-70
2022/11/05 10:09:15;;;;;;;;;;;20.20;68.10;;;;;;4477699;32;19986;-71
2022/11/05 10:11:44;;;;;;;;;;;20.20;68.20;;;;;;4491923;32;20074;-69
2022/11/05 10:14:17;;;;;;;;;;;20.10;68.30;;;;;;4493158;31;19990;-70
2022/11/05 10:16:46;;;;;;;;;;;20.10;68.30;;;;;;4495102;31;19987;-69
2022/11/05 10:19:25;;;;;;;;;;;20.00;68.60;;;;;;4494876;31;19987;-71
2022/11/05 10:22:07;;;;;;;;;;;20.00;68.80;;;;;;4495189;31;20480;-70
2022/11/05 10:24:32;;;;;;;;;;;19.90;68.90;;;;;;4495047;31;19969;-70
2022/11/05 10:26:58;;;;;;;;;;;19.80;69.10;;;;;;4494903;31;19996;-70
2022/11/05 10:29:25;;;;;;;;;;;19.70;69.30;;;;;;4494887;31;20021;-70
2022/11/05 10:31:52;;;;;;;;;;;19.70;69.50;;;;;;4494609;31;19987;-70
2022/11/05 10:34:19;;;;;;;;;;;19.60;69.60;;;;;;4494483;31;20019;-70
2022/11/05 10:36:45;;;;;;;;;;;19.50;69.80;;;;;;4494757;31;19985;-70
2022/11/05 10:39:12;;;;;;;;;;;19.50;69.90;;;;;;4494721;31;20378;-70
2022/11/05 10:41:57;;;;;;;;;;;19.40;70.10;;;;;;4494673;31;20437;-69
2022/11/05 10:44:38;;;;;;;;;;;19.40;70.30;;;;;;4494042;31;20116;-68
2022/11/05 10:47:05;;;;;;;;;;;19.30;70.40;;;;;;4494741;31;20086;-70
2022/11/05 10:49:40;;;;;;;;;;;19.30;70.50;;;;;;4494365;31;19981;-70
2022/11/05 10:52:20;;;;;;;;;;;19.20;70.70;;;;;;4494286;31;19973;-70
2022/11/05 10:54:46;;;;;;;;;;;19.20;70.80;;;;;;4494212;31;20060;-69
2022/11/05 10:57:32;;;;;;;;;;;19.10;70.90;;;;;;4494364;31;20100;-69
2022/11/05 11:00:13;;;;;;;;;;;19.10;71.10;;;;;;4494539;31;20460;-70
2022/11/05 11:02:40;;;;;;;;;;;19.10;71.30;;;;;;4494326;31;19970;-70
2022/11/05 11:05:05;;;;;;;;;;;19.00;71.40;;;;;;4494288;31;19977;-70
2022/11/05 11:07:31;;;;;;;;;;;19.00;71.40;;;;;;4479870;31;19971;-70
2022/11/05 11:09:57;;;;;;;;;;;18.90;71.50;;;;;;4494214;31;19969;-70
2022/11/05 11:12:25;;;;;;;;;;;18.90;71.60;;;;;;4494452;31;19974;-67
2022/11/05 11:15:00;;;;;;;;;;;18.90;71.80;;;;;;4494357;31;20058;-68
2022/11/05 11:17:27;;;;;;;;;;;18.90;71.90;;;;;;4493833;31;20100;-69
2022/11/05 11:20:11;;;;;;;;;;;18.80;71.80;;;;;;4493990;31;20047;-69
2022/11/05 11:22:37;;;;;;;;;;;18.80;71.90;;;;;;4493947;31;19973;-70
2022/11/05 11:25:17;;;;;;;;;;;18.70;71.90;;;;;;4479269;31;19969;-70
2022/11/05 11:27:43;;;;;;;;;;;18.70;71.90;;;;;;4493937;31;19992;-69
2022/11/05 11:30:16;;;;;;;;;;;18.70;72.00;;;;;;4493626;31;19970;-69
2022/11/05 11:32:42;;;;;;;;;;;18.60;72.00;;;;;;4494044;31;19969;-69
2022/11/05 11:35:19;;;;;;;;;;;18.60;72.10;;;;;;4479617;31;19969;-69
2022/11/05 11:37:45;;;;;;;;;;;18.60;72.10;;;;;;4494070;31;20025;-69
2022/11/05 11:40:19;;;;;;;;;;;18.60;72.30;;;;;;4493901;31;19989;-69
2022/11/05 11:42:47;;;;;;;;;;;18.60;72.20;;;;;;4493972;31;19969;-69
2022/11/05 11:45:25;;;;;;;;;;;18.60;72.20;;;;;;4493277;31;19973;-69
2022/11/05 11:47:53;;;;;;;;;;;18.60;72.30;;;;;;4493822;31;19988;-69
2022/11/05 11:50:37;;;;;;;;;;;18.50;72.30;;;;;;4493900;31;20391;-69
2022/11/05 11:53:18;;;;;;;;;;;18.50;72.30;;;;;;4493826;31;20092;-69
2022/11/05 11:56:04;;;;;;;;;;;18.50;72.30;;;;;;4493335;31;20105;-70
2022/11/05 11:58:44;;;;;;;;;;;18.50;72.50;;;;;;4493381;31;19969;-70
2022/11/05 12:01:16;;;;;;;;;;;18.50;72.50;;;;;;4493446;31;20054;-69
2022/11/05 12:04:05;;;;;;;;;;;18.40;72.40;;;;;;4493107;31;20058;-69
2022/11/05 12:06:30;;;;;;;;;;;18.40;72.50;;;;;;4486916;31;20423;-69
2022/11/05 12:09:03;;;;;;;;;;;18.40;72.50;;;;;;4493369;31;20101;-69
2022/11/05 12:11:42;;;;;;;;;;;18.40;72.50;;;;;;4493184;31;20428;-69
2022/11/05 12:14:07;;;;;;;;;;;18.40;72.50;;;;;;4493591;31;20099;-70
2022/11/05 12:16:40;;;;;;;;;;;18.40;72.50;;;;;;4493408;31;19958;-69
2022/11/05 12:19:26;;;;;;;;;;;18.40;72.50;;;;;;4493467;31;19977;-69
2022/11/05 12:22:10;;;;;;;;;;;18.40;72.60;;;;;;4493114;31;19982;-69
2022/11/05 12:24:48;;;;;;;;;;;18.30;72.50;;;;;;4493099;31;20035;-69
2022/11/05 12:27:17;;;;;;;;;;;18.30;72.50;;;;;;4493281;31;20042;-69
2022/11/05 12:29:42;;;;;;;;;;;18.30;72.60;;;;;;4493030;31;20106;-69
2022/11/05 12:32:08;;;;;;;;;;;18.30;72.50;;;;;;4493075;31;20103;-69
2022/11/05 12:34:51;;;;;;;;;;;18.30;72.60;;;;;;4493242;31;20298;-70
2022/11/05 12:37:17;;;;;;;;;;;18.30;72.60;;;;;;4492383;31;19970;-70
2022/11/05 12:39:43;;;;;;;;;;;18.30;72.60;;;;;;4492751;31;20042;-70
2022/11/05 12:42:17;;;;;;;;;;;18.20;72.50;;;;;;4492643;31;19977;-69
2022/11/05 12:44:44;;;;;;;;;;;18.20;72.60;;;;;;4492742;31;19969;-70
2022/11/05 12:47:13;;;;;;;;;;;18.20;72.60;;;;;;4492880;31;19965;-69
2022/11/05 12:49:41;;;;;;;;;;;18.30;72.70;;;;;;4492801;31;20040;-69
2022/11/05 12:52:07;;;;;;;;;;;18.30;72.60;;;;;;4492552;31;19969;-70
2022/11/05 12:54:48;;;;;;;;;;;18.20;72.60;;;;;;4478363;31;19970;-70
2022/11/05 12:57:15;;;;;;;;;;;18.20;72.70;;;;;;4492710;31;20114;-69
2022/11/05 12:59:47;;;;;;;;;;;18.20;72.70;;;;;;4478379;31;19985;-69
2022/11/05 13:02:20;;;;;;;;;;;18.20;72.70;;;;;;4465382;31;20116;-69
2022/11/05 13:04:51;;;;;;;;;;;18.20;72.80;;;;;;4492839;31;19981;-69
2022/11/05 13:07:22;;;;;;;;;;;18.20;72.80;;;;;;4492402;31;19985;-69
2022/11/05 13:09:51;;;;;;;;;;;18.10;72.80;;;;;;4492867;31;19977;-69
2022/11/05 13:12:18;;;;;;;;;;;18.10;72.70;;;;;;4492950;32;19973;-70
2022/11/05 13:14:56;;;;;;;;;;;18.10;72.80;;;;;;4492837;32;19984;-69
2022/11/05 13:17:23;;;;;;;;;;;18.10;72.80;;;;;;4492670;32;19978;-69
2022/11/05 13:19:52;;;;;;;;;;;18.10;72.70;;;;;;4492512;32;19987;-70
2022/11/05 13:22:35;;;;;;;;;;;18.10;72.70;;;;;;4492757;32;20127;-69
2022/11/05 13:25:10;;;;;;;;;;;18.10;72.70;;;;;;4492506;32;20102;-69
2022/11/05 13:27:45;;;;;;;;;;;18.10;72.70;;;;;;4465472;32;19973;-69
2022/11/05 13:30:13;;;;;;;;;;;18.10;72.60;;;;;;4492176;32;19970;-69
2022/11/05 13:32:40;;;;;;;;;;;18.10;72.60;;;;;;4492487;32;20111;-69
2022/11/05 13:35:12;;;;;;;;;;;18.10;72.60;;;;;;4492394;32;19973;-69
2022/11/05 13:40:33;;;;;;;;;;;18.00;72.60;;;;;;4492700;32;20198;-69
2022/11/05 13:42:59;;;;;;;;;;;18.10;72.70;;;;;;4492424;32;20099;-70
2022/11/05 13:45:31;;;;;;;;;;;18.10;72.60;;;;;;4492230;32;19989;-69
2022/11/05 13:48:00;;;;;;;;;;;18.10;72.70;;;;;;4493150;31;19984;-69
2022/11/05 13:50:43;;;;;;;;;;;18.10;72.70;;;;;;4495156;31;19997;-69
2022/11/05 13:53:18;;;;;;;;;;;18.00;72.60;;;;;;4495761;31;19981;-70
2022/11/05 13:55:55;;;;;;;;;;;18.10;72.60;;;;;;4480886;31;19984;-69
2022/11/05 13:58:47;;;;;;;;;;;18.10;72.60;;;;;;4495429;31;19977;-69
2022/11/05 14:01:15;;;;;;;;;;;18.00;72.60;;;;;;4476117;31;20020;-70
2022/11/05 14:03:46;;;;;;;;;;;18.00;72.60;;;;;;4494938;31;19973;-69
2022/11/05 14:06:12;;;;;;;;;;;18.00;72.60;;;;;;4495168;31;20106;-69
2022/11/05 14:08:39;;;;;;;;;;;18.00;72.60;;;;;;4495452;31;19961;-69
2022/11/05 14:11:06;;;;;;;;;;;18.00;72.60;;;;;;4480671;31;20450;-69
2022/11/05 14:13:36;;;;;;;;;;;18.00;72.60;;;;;;4494803;31;19978;-69
2022/11/05 14:16:19;;;;;;;;;;;18.00;72.60;;;;;;4495108;31;19969;-70
2022/11/05 14:18:46;;;;;;;;;;;18.00;72.50;;;;;;4494989;31;20013;-69
2022/11/05 14:21:24;;;;;;;;;;;18.00;72.50;;;;;;4494894;31;19981;-70
2022/11/05 14:23:51;;;;;;;;;;;18.00;72.60;;;;;;4494937;31;20430;-68
2022/11/05 14:26:18;;;;;;;;;;;18.00;72.50;;;;;;4494611;31;19984;-69
2022/11/05 14:28:45;;;;;;;;;;;18.00;72.50;;;;;;4495132;31;20103;-69
2022/11/05 14:31:21;;;;;;;;;;;17.90;72.40;;;;;;4494808;31;19991;-70
2022/11/05 14:33:58;;;;;;;;;;;17.90;72.50;;;;;;4495671;31;20071;-69
2022/11/05 14:36:23;;;;;;;;;;;18.00;72.50;;;;;;4494453;31;19984;-68
2022/11/05 14:38:50;;;;;;;;;;;17.90;72.40;;;;;;4494596;31;19969;-69
2022/11/05 14:41:17;;;;;;;;;;;17.90;72.40;;;;;;4494667;31;20034;-70
2022/11/05 14:43:45;;;;;;;;;;;17.90;72.40;;;;;;4494284;31;19977;-69
2022/11/05 14:46:11;;;;;;;;;;;17.90;72.50;;;;;;4494516;31;20307;-69
2022/11/05 14:48:37;;;;;;;;;;;17.90;72.50;;;;;;4467367;31;20402;-69
2022/11/05 14:51:18;;;;;;;;;;;17.90;72.50;;;;;;4494652;31;19977;-70
2022/11/05 14:53:43;;;;;;;;;;;17.90;72.50;;;;;;4494533;31;20090;-69
2022/11/05 14:56:12;;;;;;;;;;;17.90;72.50;;;;;;4494473;31;20023;-70
2022/11/05 14:58:38;;;;;;;;;;;17.90;72.50;;;;;;4494760;31;19985;-69
2022/11/05 15:01:06;;;;;;;;;;;17.90;72.50;;;;;;4494191;31;20322;-70
2022/11/05 15:03:42;;;;;;;;;;;17.80;72.40;;;;;;4494577;31;19969;-69
2022/11/05 15:06:28;;;;;;;;;;;17.80;72.40;;;;;;4494209;31;19984;-70
2022/11/05 15:09:15;;;;;;;;;;;17.80;72.40;;;;;;4480060;31;19986;-69
2022/11/05 15:11:46;;;;;;;;;;;17.80;72.40;;;;;;4494365;31;20151;-69